KAND

Anderson Regional Airport

Anderson, South Carolina, USA
METAR KAND 180056Z AUTO 00000KT 10SM CLR 17/13 A3021 RMK AO2 SLP222 T01720128
Observed Flight Rules
Oct-18 @ 00:56 UTC (37 minutes ago) Visual Flight Rules
Visibility Clouds
10 miles
  • Clear skies
Temperatures Readings
Current 17°C / 63°F
Dewpoint 13°C / 55°F
Humidity 77%
Altimeter 30.21" Hg
Pressure 1022.2 hPa
Elevation 239
METAR KAND 180056Z AUTO 00000KT 10SM CLR 17/13 A3021 RMK AO2 SLP222 T01720128
Observed Flight Rules
Oct-18 @ 00:56 UTC
(37 minutes ago)
VFR
Clouds
  • Clear skies
Temperature Dewpoint
17°C / 63°F 13°C / 55°F
Humidity Altimeter Pressure
77% 30.21" Hg 1022.2 hPa